<?xml version="1.0" encoding="UTF-8" standalone="no" ?>
<gpx xmlns="http://www.topografix.com/GPX/1/1" xmlns:xsi="http://www.w3.org/2001/XMLSchema-instance" xsi:schemaLocation="http://www.topografix.com/GPX/1/1 http://www.topografix.com/GPX/1/1/gpx.xsd" version="1.1" creator="VisuGPX - https://www.visugpx.com">
  <metadata>
    <name>boucles beaumont</name>
    <desc><![CDATA[boucles beaumont du périgord]]></desc>
  </metadata>
  <trk>
    <name><![CDATA[BBmt39]]></name>
    <trkseg>
      <trkpt lat="44.77293" lon="0.81408">
        <ele>119</ele>
        <time>2009-01-15T11:06:29Z</time>
      </trkpt>
      <trkpt lat="44.77313" lon="0.81403">
        <ele>121</ele>
        <time>2009-01-15T11:06:40Z</time>
      </trkpt>
      <trkpt lat="44.77333" lon="0.81398">
        <ele>122</ele>
        <time>2009-01-15T11:06:46Z</time>
      </trkpt>
      <trkpt lat="44.77353" lon="0.81393">
        <ele>123</ele>
        <time>2009-01-15T11:06:50Z</time>
      </trkpt>
      <trkpt lat="44.77375" lon="0.81393">
        <ele>125</ele>
        <time>2009-01-15T11:06:54Z</time>
      </trkpt>
      <trkpt lat="44.77395" lon="0.81395">
        <ele>124</ele>
        <time>2009-01-15T11:06:59Z</time>
      </trkpt>
      <trkpt lat="44.77415" lon="0.81403">
        <ele>127</ele>
        <time>2009-01-15T11:07:13Z</time>
      </trkpt>
      <trkpt lat="44.77435" lon="0.81408">
        <ele>132</ele>
        <time>2009-01-15T11:07:20Z</time>
      </trkpt>
      <trkpt lat="44.77458" lon="0.8141">
        <ele>135</ele>
        <time>2009-01-15T11:07:26Z</time>
      </trkpt>
      <trkpt lat="44.77478" lon="0.81415">
        <ele>135</ele>
        <time>2009-01-15T11:07:31Z</time>
      </trkpt>
      <trkpt lat="44.77495" lon="0.81428">
        <ele>140</ele>
        <time>2009-01-15T11:07:38Z</time>
      </trkpt>
      <trkpt lat="44.77515" lon="0.8144">
        <ele>141</ele>
        <time>2009-01-15T11:07:51Z</time>
      </trkpt>
      <trkpt lat="44.77535" lon="0.81453">
        <ele>142</ele>
        <time>2009-01-15T11:07:55Z</time>
      </trkpt>
      <trkpt lat="44.77555" lon="0.81468">
        <ele>142</ele>
        <time>2009-01-15T11:08:00Z</time>
      </trkpt>
      <trkpt lat="44.77573" lon="0.81483">
        <ele>143</ele>
        <time>2009-01-15T11:08:04Z</time>
      </trkpt>
      <trkpt lat="44.7759" lon="0.815">
        <ele>143</ele>
        <time>2009-01-15T11:08:08Z</time>
      </trkpt>
      <trkpt lat="44.77605" lon="0.81518">
        <ele>145</ele>
        <time>2009-01-15T11:08:12Z</time>
      </trkpt>
      <trkpt lat="44.77625" lon="0.81533">
        <ele>146</ele>
        <time>2009-01-15T11:08:26Z</time>
      </trkpt>
      <trkpt lat="44.77643" lon="0.81543">
        <ele>151</ele>
        <time>2009-01-15T11:08:36Z</time>
      </trkpt>
      <trkpt lat="44.7766" lon="0.81535">
        <ele>154</ele>
        <time>2009-01-15T11:08:44Z</time>
      </trkpt>
      <trkpt lat="44.77675" lon="0.81513">
        <ele>154</ele>
        <time>2009-01-15T11:08:49Z</time>
      </trkpt>
      <trkpt lat="44.77695" lon="0.81508">
        <ele>153</ele>
        <time>2009-01-15T11:09:03Z</time>
      </trkpt>
      <trkpt lat="44.77713" lon="0.81528">
        <ele>153</ele>
        <time>2009-01-15T11:09:15Z</time>
      </trkpt>
      <trkpt lat="44.77733" lon="0.8154">
        <ele>154</ele>
        <time>2009-01-15T11:09:21Z</time>
      </trkpt>
      <trkpt lat="44.7775" lon="0.81553">
        <ele>157</ele>
        <time>2009-01-15T11:09:27Z</time>
      </trkpt>
      <trkpt lat="44.77768" lon="0.81565">
        <ele>157</ele>
        <time>2009-01-15T11:09:31Z</time>
      </trkpt>
      <trkpt lat="44.77783" lon="0.8158">
        <ele>156</ele>
        <time>2009-01-15T11:09:35Z</time>
      </trkpt>
    </trkseg>
  </trk>
</gpx>